Carvalhopolis, Brazil
Current Conditions -  °F | °C
As of 6:00 AM on Friday 28 Nov 2014 (Local Time) from SBGW Reporting Station
Overcast Overcast  
Wind Chill: 68°   Ceiling: 1500
Heat Index: 68°   Visibility: 4mi
Dew Point: 63°   Wind: 0mph
Humidity: 83%   Direction: NA
Pressure: 29.94"   Gusts: NA
Location:  21.78°S, 45.84°W
Report Text: SBGW 280800Z 00000KT 7000 FEW008 OVC015 20/17 Q1014
Loading
Personal Weather Stations






























Interactive Weather Map New forecast layout! Learn more

10-Day Weather Forecast

Advertisements
Track Severe Weather on mobile